createdAt,value
2022-07-30T00:00:11.317Z,82.38
2022-07-30T00:01:12.363Z,82.58
2022-07-30T00:02:12.304Z,83.39
2022-07-30T00:03:11.658Z,83.39
2022-07-30T00:04:11.825Z,82.88
2022-07-30T00:05:12.083Z,83.18
2022-07-30T00:06:12.314Z,83.12
2022-07-30T00:07:13.307Z,83.12
2022-07-30T00:08:12.562Z,82.92
2022-07-30T00:09:12.721Z,83.83
2022-07-30T00:10:12.863Z,83.79
2022-07-30T00:11:13.007Z,83.83
2022-07-30T00:12:13.808Z,83.83
2022-07-30T00:13:14.229Z,83.83
2022-07-30T00:14:13.557Z,83.62
2022-07-30T00:15:13.670Z,83.83
2022-07-30T00:16:13.859Z,83.62
2022-07-30T00:17:14.816Z,84.03
2022-07-30T00:18:14.815Z,84.03
2022-07-30T00:19:15.310Z,83.93
2022-07-30T00:20:14.507Z,84.23
2022-07-30T00:21:20.334Z,84.13
2022-07-30T00:22:15.866Z,84.03
2022-07-30T00:23:15.111Z,84.23
2022-07-30T00:24:15.228Z,84.23
2022-07-30T00:25:15.470Z,83.72
2022-07-30T00:26:16.308Z,85.03
2022-07-30T00:27:16.308Z,84.13
2022-07-30T00:28:15.927Z,84.37
2022-07-30T00:29:16.814Z,84.07
2022-07-30T00:30:16.834Z,83.87
2022-07-30T00:31:16.538Z,83.97
2022-07-30T00:32:16.613Z,84.07
2022-07-30T00:33:17.322Z,84.17
2022-07-30T00:34:17.817Z,84.17
2022-07-30T00:35:17.172Z,84.17
2022-07-30T00:36:17.360Z,83.87
2022-07-30T00:37:17.525Z,84.67
2022-07-30T00:38:17.658Z,83.87
2022-07-30T00:39:17.946Z,84.77
2022-07-30T00:40:18.093Z,84.67
2022-07-30T00:41:18.236Z,83.97
2022-07-30T00:42:18.379Z,84.88
2022-07-30T00:43:18.550Z,83.97
2022-07-30T00:44:19.317Z,84.88
2022-07-30T00:45:19.346Z,84.67
2022-07-30T00:46:19.063Z,84.47
2022-07-30T00:47:19.203Z,84.27
2022-07-30T00:48:19.348Z,83.91
2022-07-30T00:49:19.536Z,84.01
2022-07-30T00:50:20.322Z,84.91
2022-07-30T00:51:19.911Z,84.47
2022-07-30T00:52:20.060Z,84.57
2022-07-30T00:53:20.824Z,84.41
2022-07-30T00:54:20.335Z,84.01
2022-07-30T00:55:20.500Z,84.41
2022-07-30T00:56:21.333Z,85.02
2022-07-30T00:57:20.831Z,84.71
2022-07-30T00:58:21.824Z,85.05
2022-07-30T00:59:21.178Z,85.22
2022-07-30T01:00:21.334Z,85.22
2022-07-30T01:01:21.893Z,85.16
2022-07-30T01:02:21.716Z,85.16
2022-07-30T01:03:22.828Z,85.46
2022-07-30T01:04:22.821Z,85.56
2022-07-30T01:05:22.334Z,86.27
2022-07-30T01:06:23.327Z,85.76
2022-07-30T01:07:27.085Z,86.16
2022-07-30T01:08:23.849Z,86.27
2022-07-30T01:09:23.102Z,86.36
2022-07-30T01:10:24.258Z,86.21
2022-07-30T01:11:23.373Z,86.41
2022-07-30T01:12:23.846Z,86.21
2022-07-30T01:13:23.713Z,86.41
2022-07-30T01:14:24.860Z,87.01
2022-07-30T01:15:23.977Z,86.51
2022-07-30T01:16:24.207Z,86.55
2022-07-30T01:17:24.388Z,86.25
2022-07-30T01:18:25.330Z,86.30
2022-07-30T01:19:24.689Z,86.71
2022-07-30T01:20:24.853Z,87.36
2022-07-30T01:21:25.829Z,86.55
2022-07-30T01:22:27.833Z,86.45
2022-07-30T01:23:26.367Z,87.05
2022-07-30T01:24:25.518Z,87.12
2022-07-30T01:25:26.330Z,86.95
2022-07-30T01:26:25.839Z,86.85
2022-07-30T01:27:26.023Z,87.26
2022-07-30T01:28:26.340Z,87.05
2022-07-30T01:29:26.365Z,87.26
2022-07-30T01:30:26.538Z,86.65
2022-07-30T01:31:27.344Z,86.65
2022-07-30T01:32:27.351Z,86.95
2022-07-30T01:33:27.839Z,86.79
2022-07-30T01:34:27.315Z,87.15
2022-07-30T01:35:27.845Z,87.10
2022-07-30T01:36:27.599Z,86.95
2022-07-30T01:37:27.758Z,86.90
2022-07-30T01:38:34.915Z,86.99
2022-07-30T01:39:29.857Z,86.99
2022-07-30T01:40:28.219Z,87.60
2022-07-30T01:41:28.396Z,87.50
2022-07-30T01:42:28.527Z,87.60
2022-07-30T01:43:28.676Z,87.19
2022-07-30T01:44:28.820Z,87.44
2022-07-30T01:45:29.045Z,87.81
2022-07-30T01:46:29.208Z,87.74
2022-07-30T01:47:29.334Z,87.74
2022-07-30T01:48:29.472Z,87.84
2022-07-30T01:49:29.588Z,88.04
2022-07-30T01:50:29.723Z,88.35
2022-07-30T01:51:37.241Z,88.25
2022-07-30T01:52:31.375Z,88.15
2022-07-30T01:53:30.235Z,88.45
2022-07-30T01:54:30.403Z,88.25
2022-07-30T01:55:30.578Z,88.25
2022-07-30T01:56:30.737Z,88.96
2022-07-30T01:57:30.944Z,88.45
2022-07-30T01:58:31.350Z,88.55
2022-07-30T01:59:31.239Z,88.65
2022-07-30T02:00:31.358Z,89.16
2022-07-30T02:01:32.390Z,88.79
2022-07-30T02:02:31.757Z,88.45
2022-07-30T02:03:31.958Z,88.65
2022-07-30T02:04:32.839Z,88.45
2022-07-30T02:05:32.302Z,88.79
2022-07-30T02:06:32.448Z,88.55
2022-07-30T02:07:33.346Z,88.45
2022-07-30T02:08:32.759Z,88.45
2022-07-30T02:09:32.880Z,88.65
2022-07-30T02:10:33.001Z,88.70
2022-07-30T02:11:33.844Z,88.79
2022-07-30T02:12:34.345Z,88.39
2022-07-30T02:13:33.604Z,88.59
2022-07-30T02:14:34.345Z,88.49
2022-07-30T02:15:35.037Z,88.59
2022-07-30T02:16:34.275Z,88.59
2022-07-30T02:17:39.460Z,88.59
2022-07-30T02:18:35.860Z,88.90
2022-07-30T02:19:34.718Z,88.53
2022-07-30T02:20:35.774Z,88.70
2022-07-30T02:21:37.175Z,89.00
2022-07-30T02:22:35.849Z,89.24
2022-07-30T02:23:35.856Z,89.04
2022-07-30T02:24:35.638Z,88.84
2022-07-30T02:25:35.841Z,89.65
2022-07-30T02:26:36.854Z,89.34
2022-07-30T02:27:38.319Z,89.14
2022-07-30T02:28:36.433Z,89.34
2022-07-30T02:29:37.357Z,89.85
2022-07-30T02:30:36.864Z,89.14
2022-07-30T02:31:37.895Z,89.14
2022-07-30T02:32:37.086Z,89.45
2022-07-30T02:33:48.591Z,89.45
2022-07-30T02:34:38.476Z,89.89
2022-07-30T02:35:37.742Z,89.45
2022-07-30T02:36:38.844Z,89.99
2022-07-30T02:37:43.519Z,90.45
2022-07-30T02:38:39.345Z,89.54
2022-07-30T02:39:38.474Z,90.05
2022-07-30T02:40:38.661Z,89.89
2022-07-30T02:41:39.354Z,89.69
2022-07-30T02:42:39.860Z,89.34
2022-07-30T02:43:39.276Z,89.69
2022-07-30T02:44:40.429Z,89.95
2022-07-30T02:45:39.881Z,89.95
2022-07-30T02:46:40.898Z,90.50
2022-07-30T02:47:40.088Z,90.36
2022-07-30T02:48:41.021Z,90.05
2022-07-30T02:49:40.496Z,90.40
2022-07-30T02:50:40.647Z,90.25
2022-07-30T02:51:40.841Z,90.45
2022-07-30T02:52:41.024Z,89.95
2022-07-30T02:53:41.885Z,89.89
2022-07-30T02:54:41.288Z,89.79
2022-07-30T02:55:42.387Z,89.95
2022-07-30T02:56:41.673Z,89.99
2022-07-30T02:57:43.466Z,90.09
2022-07-30T02:58:42.905Z,90.40
2022-07-30T02:59:42.300Z,90.60
2022-07-30T03:00:43.436Z,89.85
2022-07-30T03:01:43.420Z,90.05
2022-07-30T03:02:43.770Z,90.30
2022-07-30T03:03:43.879Z,89.99
2022-07-30T03:04:43.197Z,89.89
2022-07-30T03:05:43.366Z,90.36
2022-07-30T03:06:44.357Z,90.45
2022-07-30T03:07:43.749Z,90.40
2022-07-30T03:08:44.879Z,89.89
2022-07-30T03:09:52.272Z,90.30
2022-07-30T03:10:45.283Z,89.99
2022-07-30T03:11:44.403Z,90.40
2022-07-30T03:12:44.548Z,90.09
2022-07-30T03:13:44.884Z,89.99
2022-07-30T03:14:44.898Z,90.60
2022-07-30T03:15:45.033Z,90.80
2022-07-30T03:16:45.867Z,90.50
2022-07-30T03:17:46.372Z,90.60
2022-07-30T03:18:45.655Z,90.75
2022-07-30T03:19:45.807Z,91.05
2022-07-30T03:20:45.974Z,90.95
2022-07-30T03:21:46.131Z,91.05
2022-07-30T03:22:46.872Z,90.64
2022-07-30T03:23:46.539Z,91.15
2022-07-30T03:24:46.669Z,90.95
2022-07-30T03:25:46.804Z,90.95
2022-07-30T03:26:46.933Z,91.05
2022-07-30T03:27:47.064Z,91.25
2022-07-30T03:28:47.220Z,91.55
2022-07-30T03:29:47.869Z,91.55
2022-07-30T03:30:47.525Z,91.25
2022-07-30T03:31:47.802Z,90.95
2022-07-30T03:32:48.370Z,90.84
2022-07-30T03:33:48.005Z,90.75
2022-07-30T03:34:48.142Z,91.05
2022-07-30T03:35:48.383Z,90.64
2022-07-30T03:36:48.395Z,90.34
2022-07-30T03:37:48.582Z,90.89
2022-07-30T03:38:48.751Z,90.99
2022-07-30T03:39:48.911Z,90.64
2022-07-30T03:40:49.067Z,90.84
2022-07-30T03:41:49.212Z,91.30
2022-07-30T03:42:49.371Z,91.50
2022-07-30T03:43:49.539Z,91.50
2022-07-30T03:44:49.713Z,91.50
2022-07-30T03:45:50.385Z,91.70
2022-07-30T03:46:50.087Z,92.21
2022-07-30T03:47:50.876Z,91.70
2022-07-30T03:48:50.406Z,92.21
2022-07-30T03:49:50.604Z,92.10
2022-07-30T03:50:50.772Z,91.50
2022-07-30T03:51:50.928Z,92.21
2022-07-30T03:52:51.081Z,92.21
2022-07-30T03:53:51.232Z,92.41
2022-07-30T03:54:51.381Z,92.10
2022-07-30T03:55:51.557Z,91.60
2022-07-30T03:56:51.714Z,91.50
2022-07-30T03:57:52.398Z,91.50
2022-07-30T03:58:52.044Z,91.60
2022-07-30T03:59:53.196Z,91.90
2022-07-30T04:00:52.317Z,91.90
2022-07-30T04:01:52.578Z,91.66
2022-07-30T04:02:52.642Z,91.50
2022-07-30T04:03:52.906Z,91.46
2022-07-30T04:04:52.917Z,91.50
2022-07-30T04:05:53.881Z,91.80
2022-07-30T04:06:53.257Z,91.70
2022-07-30T04:07:53.436Z,91.70
2022-07-30T04:08:54.378Z,91.70
2022-07-30T04:09:53.745Z,91.70
2022-07-30T04:10:53.914Z,91.90
2022-07-30T04:11:54.881Z,91.50
2022-07-30T04:12:54.273Z,92.41
2022-07-30T04:13:54.426Z,92.10
2022-07-30T04:14:54.611Z,92.51
2022-07-30T04:16:40.301Z,92.51
2022-07-30T04:16:55.925Z,92.71
2022-07-30T04:17:55.210Z,92.61
2022-07-30T04:18:55.904Z,92.21
2022-07-30T04:19:56.413Z,92.55
2022-07-30T04:20:56.427Z,92.61
2022-07-30T04:21:56.884Z,92.41
2022-07-30T04:22:56.108Z,92.21
2022-07-30T04:24:02.106Z,92.61
2022-07-30T04:24:57.482Z,92.51
2022-07-30T04:25:56.718Z,92.61
2022-07-30T04:26:56.856Z,92.00
2022-07-30T04:28:02.902Z,92.51
2022-07-30T04:28:58.916Z,92.61
2022-07-30T04:29:57.404Z,92.51
2022-07-30T04:30:57.674Z,92.61
2022-07-30T04:31:57.904Z,92.10
2022-07-30T04:32:58.890Z,92.71
2022-07-30T04:34:02.965Z,92.82
2022-07-30T04:34:59.346Z,92.51
2022-07-30T04:35:59.388Z,92.41
2022-07-30T04:36:59.263Z,92.82
2022-07-30T04:37:58.892Z,92.25
2022-07-30T04:38:59.039Z,92.31
2022-07-30T04:39:59.178Z,92.61
2022-07-30T04:40:59.330Z,92.91
2022-07-30T04:41:59.932Z,92.51
2022-07-30T04:42:59.682Z,92.10
2022-07-30T04:43:59.810Z,92.82
2022-07-30T04:44:59.961Z,92.61
2022-07-30T04:46:00.145Z,92.51
2022-07-30T04:47:00.613Z,92.41
2022-07-30T04:48:00.324Z,92.61
2022-07-30T04:49:00.583Z,92.41
2022-07-30T04:50:00.906Z,92.57
2022-07-30T04:51:00.897Z,92.67
2022-07-30T04:52:01.892Z,92.21
2022-07-30T04:53:01.252Z,92.51
2022-07-30T04:54:01.902Z,92.36
2022-07-30T04:55:01.556Z,92.26
2022-07-30T04:56:01.726Z,91.46
2022-07-30T04:57:02.350Z,91.55
2022-07-30T04:58:02.894Z,91.86
2022-07-30T04:59:03.165Z,91.86
2022-07-30T05:00:02.298Z,91.66
2022-07-30T05:01:02.908Z,91.86
2022-07-30T05:02:03.485Z,91.66
2022-07-30T05:03:02.927Z,91.96
2022-07-30T05:04:03.411Z,91.66
2022-07-30T05:05:03.353Z,91.46
2022-07-30T05:06:04.461Z,91.41
2022-07-30T05:07:04.171Z,91.61
2022-07-30T05:08:03.779Z,91.82
2022-07-30T05:09:04.019Z,91.82
2022-07-30T05:10:04.182Z,91.71
2022-07-30T05:11:04.345Z,91.57
2022-07-30T05:12:05.401Z,91.37
2022-07-30T05:13:04.682Z,91.16
2022-07-30T05:14:04.911Z,91.37
2022-07-30T05:15:05.067Z,90.76
2022-07-30T05:16:05.298Z,90.45
2022-07-30T05:17:06.401Z,90.62
2022-07-30T05:18:05.668Z,90.25
2022-07-30T05:19:07.723Z,89.85
2022-07-30T05:20:05.993Z,90.31
2022-07-30T05:21:06.906Z,90.01
2022-07-30T05:22:06.918Z,89.81
2022-07-30T05:23:07.478Z,89.46
2022-07-30T05:24:06.917Z,89.26
2022-07-30T05:25:08.404Z,89.01
2022-07-30T05:26:08.912Z,88.61
2022-07-30T05:27:07.248Z,88.81
2022-07-30T05:28:07.390Z,88.01
2022-07-30T05:29:08.194Z,88.06
2022-07-30T05:30:07.687Z,87.96
2022-07-30T05:31:08.606Z,87.26
2022-07-30T05:32:08.027Z,86.95
2022-07-30T05:33:15.657Z,87.21
2022-07-30T05:34:09.428Z,86.51
2022-07-30T05:35:09.405Z,86.61
2022-07-30T05:36:08.776Z,86.36
2022-07-30T05:37:10.051Z,85.86
2022-07-30T05:38:09.423Z,86.47
2022-07-30T05:39:09.431Z,86.16
2022-07-30T05:40:09.442Z,85.11
2022-07-30T05:41:30.659Z,85.02
2022-07-30T05:42:12.097Z,85.31
2022-07-30T05:43:09.831Z,85.17
2022-07-30T05:44:10.003Z,85.31
2022-07-30T05:45:10.909Z,84.27
2022-07-30T05:46:10.962Z,84.27
2022-07-30T05:47:11.409Z,83.76
2022-07-30T05:48:11.444Z,83.22
2022-07-30T05:49:10.864Z,83.83
2022-07-30T05:50:10.930Z,84.13
2022-07-30T05:51:11.916Z,83.02
2022-07-30T05:52:11.298Z,82.68
2022-07-30T05:53:11.463Z,82.07
2022-07-30T05:54:11.648Z,81.77
2022-07-30T05:55:11.804Z,81.98
2022-07-30T05:56:11.996Z,81.23
2022-07-30T05:57:12.914Z,81.73
2022-07-30T05:58:12.915Z,81.03
2022-07-30T05:59:12.455Z,81.23
2022-07-30T06:00:12.635Z,80.73
2022-07-30T06:01:12.867Z,80.69
2022-07-30T06:02:12.974Z,81.03
2022-07-30T06:03:13.130Z,80.52
2022-07-30T06:04:13.977Z,80.19
2022-07-30T06:05:13.519Z,80.39
2022-07-30T06:06:13.685Z,80.19
2022-07-30T06:07:13.834Z,80.49
2022-07-30T06:08:14.433Z,80.45
2022-07-30T06:09:14.170Z,80.75
2022-07-30T06:10:14.309Z,80.15
2022-07-30T06:11:14.450Z,79.14
2022-07-30T06:12:14.597Z,79.04
2022-07-30T06:13:14.944Z,78.94
2022-07-30T06:14:15.060Z,78.74
2022-07-30T06:15:18.572Z,78.60
2022-07-30T06:16:15.475Z,78.40
2022-07-30T06:17:16.426Z,78.50
2022-07-30T06:18:15.652Z,78.90
2022-07-30T06:19:19.404Z,78.36
2022-07-30T06:20:17.922Z,78.56
2022-07-30T06:21:16.253Z,79.10
2022-07-30T06:22:16.921Z,78.70
2022-07-30T06:23:16.505Z,78.80
2022-07-30T06:24:17.437Z,78.86
2022-07-30T06:25:18.554Z,78.77
2022-07-30T06:26:17.144Z,78.16
2022-07-30T06:27:17.263Z,78.27
2022-07-30T06:28:36.597Z,78.66
2022-07-30T06:29:19.611Z,78.06
2022-07-30T06:30:18.426Z,77.83
2022-07-30T06:31:18.954Z,77.76
2022-07-30T06:32:18.247Z,77.66
2022-07-30T06:33:18.391Z,78.46
2022-07-30T06:34:18.542Z,78.16
2022-07-30T06:35:19.428Z,78.22
2022-07-30T06:36:18.927Z,76.76
2022-07-30T06:37:19.929Z,77.26
2022-07-30T06:38:19.181Z,77.96
2022-07-30T06:39:58.032Z,77.96
2022-07-30T06:40:20.442Z,77.86
2022-07-30T06:41:19.566Z,77.66
2022-07-30T06:42:19.718Z,77.62
2022-07-30T06:43:19.882Z,78.33
2022-07-30T06:44:20.080Z,77.02
2022-07-30T06:45:20.441Z,77.96
2022-07-30T06:46:20.433Z,77.83
2022-07-30T06:47:20.511Z,77.66
2022-07-30T06:48:20.701Z,78.06
2022-07-30T06:49:20.954Z,77.42
2022-07-30T06:50:21.066Z,77.16
2022-07-30T06:51:21.444Z,78.03
2022-07-30T06:52:21.956Z,78.42
2022-07-30T06:53:22.436Z,77.89
2022-07-30T06:54:21.704Z,77.92
2022-07-30T06:55:21.946Z,77.79
2022-07-30T06:56:22.175Z,77.79
2022-07-30T06:57:22.936Z,78.19
2022-07-30T06:58:25.306Z,77.85
2022-07-30T06:59:23.462Z,77.69
2022-07-30T07:00:23.431Z,77.59
2022-07-30T07:01:23.984Z,76.85
2022-07-30T07:02:23.587Z,75.95
2022-07-30T07:03:23.491Z,76.45
2022-07-30T07:04:23.678Z,76.15
2022-07-30T07:05:24.435Z,76.25
2022-07-30T07:06:24.068Z,75.64
2022-07-30T07:07:40.667Z,76.41
2022-07-30T07:08:26.445Z,76.11
2022-07-30T07:09:24.669Z,75.31
2022-07-30T07:10:24.934Z,75.10
2022-07-30T07:11:25.015Z,74.51
2022-07-30T07:12:25.938Z,74.71
2022-07-30T07:13:25.940Z,75.31
2022-07-30T07:14:25.457Z,75.01
2022-07-30T07:15:36.233Z,75.01
2022-07-30T07:16:26.798Z,75.91
2022-07-30T07:17:25.936Z,74.94
2022-07-30T07:18:26.131Z,75.41
2022-07-30T07:20:00.496Z,76.11
2022-07-30T07:20:28.440Z,76.41
2022-07-30T07:21:26.656Z,75.51
2022-07-30T07:22:26.811Z,75.91
2022-07-30T07:23:38.993Z,75.71
2022-07-30T07:24:28.066Z,76.31
2022-07-30T07:25:27.200Z,76.07
2022-07-30T07:26:27.366Z,74.57
2022-07-30T07:27:27.535Z,74.97
2022-07-30T07:28:33.283Z,74.54
2022-07-30T07:29:28.834Z,74.30
2022-07-30T07:30:27.983Z,73.80
2022-07-30T07:32:06.961Z,73.80
2022-07-30T07:32:29.969Z,73.60
2022-07-30T07:33:28.956Z,73.10
2022-07-30T07:34:28.575Z,73.30
2022-07-30T07:35:29.452Z,73.10
2022-07-30T07:36:29.487Z,72.89
2022-07-30T07:37:29.156Z,73.50
2022-07-30T07:38:29.303Z,71.92
2022-07-30T07:39:29.470Z,71.09
2022-07-30T07:40:30.448Z,70.76
2022-07-30T07:41:29.964Z,69.36
2022-07-30T07:42:31.476Z,69.43
2022-07-30T07:43:30.959Z,68.59
2022-07-30T07:44:30.960Z,67.80
2022-07-30T07:45:30.343Z,68.59
2022-07-30T07:46:33.749Z,68.29
2022-07-30T07:47:31.453Z,68.33
2022-07-30T07:48:30.852Z,68.46
2022-07-30T07:49:30.998Z,69.62
2022-07-30T07:50:31.971Z,68.73
2022-07-30T07:51:47.065Z,69.13
2022-07-30T07:52:32.589Z,69.76
2022-07-30T07:53:33.454Z,70.06
2022-07-30T07:54:32.954Z,70.69
2022-07-30T07:55:33.036Z,70.76
2022-07-30T07:56:32.459Z,70.46
2022-07-30T07:57:32.606Z,70.66
2022-07-30T07:58:33.464Z,70.96
2022-07-30T07:59:40.286Z,70.66
2022-07-30T08:00:34.129Z,70.06
2022-07-30T08:01:33.282Z,70.26
2022-07-30T08:02:33.511Z,69.79
2022-07-30T08:03:33.656Z,70.09
2022-07-30T08:04:34.458Z,70.39
2022-07-30T08:05:55.824Z,70.99
2022-07-30T08:06:35.964Z,70.16
2022-07-30T08:07:34.169Z,69.26
2022-07-30T08:08:34.339Z,69.86
2022-07-30T08:09:43.722Z,69.16
2022-07-30T08:10:35.682Z,68.46
2022-07-30T08:11:34.911Z,67.96
2022-07-30T08:12:35.054Z,68.39
2022-07-30T08:13:51.681Z,69.26
2022-07-30T08:14:36.417Z,69.99
2022-07-30T08:15:35.675Z,70.09
2022-07-30T08:16:35.854Z,70.39
2022-07-30T08:17:36.016Z,71.06
2022-07-30T08:18:36.961Z,70.16
2022-07-30T08:19:36.309Z,70.66
2022-07-30T08:20:36.475Z,71.16
2022-07-30T08:21:36.623Z,70.46
2022-07-30T08:22:36.775Z,70.06
2022-07-30T08:23:39.753Z,69.96
2022-07-30T08:24:39.161Z,69.46
2022-07-30T08:25:37.396Z,70.16
2022-07-30T08:26:37.997Z,70.76
2022-07-30T08:27:37.757Z,70.86
2022-07-30T08:28:38.475Z,70.66
2022-07-30T08:29:38.087Z,70.76
2022-07-30T08:30:38.975Z,70.99
2022-07-30T08:31:38.367Z,71.79
2022-07-30T08:32:38.513Z,71.69
2022-07-30T08:33:38.654Z,70.66
2022-07-30T08:34:39.473Z,70.46
2022-07-30T08:35:38.979Z,70.26
2022-07-30T08:36:40.203Z,70.26
2022-07-30T08:37:39.471Z,70.03
2022-07-30T08:38:40.455Z,70.72
2022-07-30T08:39:40.861Z,70.32
2022-07-30T08:40:40.097Z,69.43
2022-07-30T08:41:40.245Z,69.26
2022-07-30T08:42:40.424Z,70.06
2022-07-30T08:43:40.600Z,70.42
2022-07-30T08:44:40.755Z,70.83
2022-07-30T08:45:41.497Z,70.12
2022-07-30T08:46:41.198Z,67.56
2022-07-30T08:47:42.979Z,68.23
2022-07-30T08:48:42.521Z,68.33
2022-07-30T08:49:41.719Z,68.73
2022-07-30T08:50:41.869Z,69.73
2022-07-30T08:51:42.058Z,69.73
2022-07-30T08:52:42.216Z,69.02
2022-07-30T08:53:42.975Z,67.83
2022-07-30T08:54:42.487Z,67.83
2022-07-30T08:55:42.989Z,66.23
2022-07-30T08:56:42.885Z,68.03
2022-07-30T08:57:43.024Z,66.93
2022-07-30T08:58:43.991Z,67.30
2022-07-30T08:59:52.928Z,67.80
2022-07-30T09:00:44.584Z,68.19
2022-07-30T09:01:43.651Z,66.77
2022-07-30T09:02:43.785Z,67.86
2022-07-30T09:03:44.517Z,66.56
2022-07-30T09:04:44.170Z,65.56
2022-07-30T09:05:44.355Z,65.70
2022-07-30T09:06:44.549Z,66.89
2022-07-30T09:07:44.689Z,67.19
2022-07-30T09:08:44.877Z,66.09
2022-07-30T09:09:45.044Z,65.20
2022-07-30T09:10:52.996Z,64.73
2022-07-30T09:11:46.381Z,65.90
2022-07-30T09:12:45.512Z,64.90
2022-07-30T09:13:45.689Z,64.10
2022-07-30T09:14:46.484Z,63.20
2022-07-30T09:15:46.024Z,61.10
2022-07-30T09:16:46.204Z,61.30
2022-07-30T09:17:46.408Z,62.01
2022-07-30T09:18:46.583Z,61.77
2022-07-30T09:19:46.747Z,62.07
2022-07-30T09:20:46.939Z,62.67
2022-07-30T09:21:47.982Z,63.07
2022-07-30T09:22:47.498Z,62.87
2022-07-30T09:23:51.115Z,62.97
2022-07-30T09:24:48.587Z,62.54
2022-07-30T09:25:47.877Z,62.84
2022-07-30T09:26:47.930Z,61.74
2022-07-30T09:27:48.127Z,62.64
2022-07-30T09:28:48.327Z,63.34
2022-07-30T09:29:48.516Z,63.34
2022-07-30T09:30:48.696Z,63.74
2022-07-30T09:31:48.872Z,63.54
2022-07-30T09:32:50.032Z,62.64
2022-07-30T09:33:49.323Z,59.75
2022-07-30T09:34:49.554Z,60.05
2022-07-30T09:35:49.717Z,61.38
2022-07-30T09:36:50.036Z,58.98
2022-07-30T09:37:51.006Z,59.68
2022-07-30T09:38:50.275Z,59.98
2022-07-30T09:39:59.343Z,60.17
2022-07-30T09:40:51.619Z,59.98
2022-07-30T09:41:51.782Z,61.27
2022-07-30T09:42:51.494Z,62.37
2022-07-30T09:43:51.155Z,62.87
2022-07-30T09:44:51.342Z,63.47
2022-07-30T09:45:57.166Z,63.67
2022-07-30T09:46:52.769Z,62.54
2022-07-30T09:47:52.494Z,62.34
2022-07-30T09:48:53.077Z,62.84
2022-07-30T09:49:52.258Z,63.24
2022-07-30T09:50:53.001Z,62.48
2022-07-30T09:51:55.583Z,62.64
2022-07-30T09:52:53.500Z,62.20
2022-07-30T09:53:53.011Z,63.10
2022-07-30T09:54:54.185Z,63.53
2022-07-30T09:55:53.383Z,63.26
2022-07-30T09:56:54.175Z,63.86
2022-07-30T09:57:56.568Z,62.86
2022-07-30T09:58:55.501Z,63.33
2022-07-30T09:59:54.100Z,63.83
2022-07-30T10:02:00.833Z,63.47
2022-07-30T10:02:56.503Z,62.57
2022-07-30T10:03:55.014Z,62.84
2022-07-30T10:04:54.959Z,63.24
2022-07-30T10:05:55.091Z,62.61
2022-07-30T10:06:55.264Z,62.54
2022-07-30T10:07:55.381Z,62.84
2022-07-30T10:08:55.552Z,63.34
2022-07-30T10:09:56.506Z,62.84
2022-07-30T10:10:56.505Z,63.21
2022-07-30T10:11:56.011Z,62.78
2022-07-30T10:12:56.150Z,62.59
2022-07-30T10:13:56.322Z,60.42
2022-07-30T10:14:56.454Z,61.02
2022-07-30T10:15:56.596Z,60.32
2022-07-30T10:16:56.713Z,61.32
2022-07-30T10:17:56.846Z,61.29
2022-07-30T10:18:57.032Z,61.39
2022-07-30T10:19:58.009Z,61.25
2022-07-30T10:20:58.521Z,59.47
2022-07-30T10:21:57.484Z,59.56
2022-07-30T10:22:57.604Z,60.96
2022-07-30T10:23:57.846Z,60.96
2022-07-30T10:24:58.506Z,61.06
2022-07-30T10:25:58.526Z,60.83
2022-07-30T10:26:58.319Z,61.03
2022-07-30T10:27:58.485Z,60.43
2022-07-30T10:28:58.600Z,61.13
2022-07-30T10:29:58.716Z,60.03
2022-07-30T10:30:59.903Z,60.46
2022-07-30T10:31:59.111Z,60.89
2022-07-30T10:33:01.424Z,61.43
2022-07-30T10:34:00.509Z,61.06
2022-07-30T10:34:59.731Z,59.94
2022-07-30T10:36:00.033Z,61.03
2022-07-30T10:37:01.755Z,60.83
2022-07-30T10:38:00.426Z,59.44
2022-07-30T10:39:00.657Z,58.14
2022-07-30T10:40:00.824Z,58.84
2022-07-30T10:41:01.090Z,58.84
2022-07-30T10:42:01.181Z,59.53
2022-07-30T10:43:01.408Z,59.53
2022-07-30T10:44:01.548Z,60.03
2022-07-30T10:45:01.775Z,59.64
2022-07-30T10:46:02.747Z,60.21
2022-07-30T10:47:07.346Z,60.21
2022-07-30T10:48:03.316Z,59.11
2022-07-30T10:49:02.587Z,59.51
2022-07-30T10:50:02.732Z,59.51
2022-07-30T10:51:02.907Z,59.91
2022-07-30T10:52:03.126Z,59.38
2022-07-30T10:53:03.280Z,58.51
2022-07-30T10:54:03.440Z,58.98
2022-07-30T10:55:03.577Z,59.48
2022-07-30T10:56:04.031Z,59.38
2022-07-30T10:57:04.222Z,59.45
2022-07-30T10:58:04.086Z,59.15
2022-07-30T10:59:04.206Z,58.95
2022-07-30T11:00:04.509Z,58.95
2022-07-30T11:01:04.594Z,58.75
2022-07-30T11:02:07.145Z,59.18
2022-07-30T11:03:07.138Z,59.28
2022-07-30T11:04:06.518Z,58.88
2022-07-30T11:05:07.026Z,58.09
2022-07-30T11:06:05.422Z,58.98
2022-07-30T11:07:05.604Z,58.69
2022-07-30T11:08:05.774Z,58.98
2022-07-30T11:09:06.982Z,59.45
2022-07-30T11:10:09.658Z,57.76
2022-07-30T11:11:19.499Z,59.25
2022-07-30T11:12:07.473Z,58.26
2022-07-30T11:13:07.531Z,59.45
2022-07-30T11:14:06.810Z,59.52
2022-07-30T11:15:18.655Z,58.62
2022-07-30T11:16:08.093Z,58.33
2022-07-30T11:17:07.228Z,58.23
2022-07-30T11:18:13.156Z,58.33
2022-07-30T11:20:13.883Z,57.51
2022-07-30T11:21:07.863Z,57.60
2022-07-30T11:22:09.543Z,58.62
2022-07-30T11:23:08.376Z,57.31
2022-07-30T11:24:09.501Z,58.70
2022-07-30T11:25:13.060Z,57.90
2022-07-30T11:26:14.450Z,57.81
2022-07-30T11:27:10.152Z,58.30
2022-07-30T11:28:10.034Z,58.67
2022-07-30T11:29:09.563Z,58.30
2022-07-30T11:30:10.535Z,56.61
2022-07-30T11:31:10.356Z,54.93
2022-07-30T11:32:10.476Z,55.82
2022-07-30T11:33:10.661Z,54.13
2022-07-30T11:34:10.546Z,55.91
2022-07-30T11:35:11.539Z,54.88
2022-07-30T11:36:11.990Z,56.10
2022-07-30T11:37:19.009Z,56.52
2022-07-30T11:38:13.049Z,57.02
2022-07-30T11:39:11.551Z,57.75
2022-07-30T11:40:12.543Z,57.92
2022-07-30T11:41:12.542Z,58.31
2022-07-30T11:42:11.919Z,58.71
2022-07-30T11:43:13.042Z,58.78
2022-07-30T11:44:12.334Z,57.56
2022-07-30T11:45:12.478Z,57.66
2022-07-30T11:46:16.330Z,56.21
2022-07-30T11:47:12.839Z,56.41
2022-07-30T11:48:12.984Z,55.85
2022-07-30T11:49:13.169Z,56.64
2022-07-30T11:50:13.556Z,56.24
2022-07-30T11:51:14.054Z,56.14
2022-07-30T11:52:14.544Z,56.14
2022-07-30T11:53:14.541Z,55.47
2022-07-30T11:54:14.174Z,56.40
2022-07-30T11:55:14.305Z,57.69
2022-07-30T11:56:14.845Z,56.79
2022-07-30T11:57:15.545Z,56.79
2022-07-30T11:58:15.549Z,56.72
2022-07-30T11:59:14.920Z,56.70
2022-07-30T12:00:15.580Z,56.99
2022-07-30T12:01:16.048Z,57.83
2022-07-30T12:02:15.403Z,55.91
2022-07-30T12:03:16.093Z,54.33
2022-07-30T12:04:15.747Z,55.00
2022-07-30T12:05:16.554Z,55.00
2022-07-30T12:06:16.559Z,55.76
2022-07-30T12:07:16.179Z,54.35
2022-07-30T12:08:35.175Z,54.25
2022-07-30T12:09:18.050Z,53.80
2022-07-30T12:10:17.552Z,53.60
2022-07-30T12:11:17.913Z,54.52
2022-07-30T12:12:17.550Z,53.73
2022-07-30T12:13:17.189Z,54.35
2022-07-30T12:14:17.275Z,53.96
2022-07-30T12:15:17.409Z,55.17
2022-07-30T12:16:17.942Z,55.99
2022-07-30T12:17:18.560Z,56.29
2022-07-30T12:18:26.273Z,56.36
2022-07-30T12:19:20.138Z,56.66
2022-07-30T12:20:19.061Z,55.83
2022-07-30T12:21:19.056Z,55.71
2022-07-30T12:22:18.800Z,54.99
2022-07-30T12:23:21.834Z,53.43
2022-07-30T12:24:19.128Z,54.17
2022-07-30T12:25:19.355Z,55.79
2022-07-30T12:26:20.056Z,56.09
2022-07-30T12:27:19.616Z,57.51
2022-07-30T12:28:19.870Z,58.23
2022-07-30T12:29:20.077Z,58.75
2022-07-30T12:30:20.320Z,58.36
2022-07-30T12:31:20.553Z,58.83
2022-07-30T12:32:21.566Z,59.32
2022-07-30T12:33:21.590Z,58.40
2022-07-30T12:34:21.075Z,57.93
2022-07-30T12:35:21.206Z,57.73
2022-07-30T12:36:22.063Z,58.33
2022-07-30T12:37:21.518Z,58.62
2022-07-30T12:38:21.677Z,58.73
2022-07-30T12:39:22.589Z,58.62
2022-07-30T12:40:21.925Z,58.60
2022-07-30T12:41:22.050Z,56.29
2022-07-30T12:42:22.190Z,57.25
2022-07-30T12:43:22.359Z,56.46
2022-07-30T12:44:23.064Z,55.94
2022-07-30T12:45:23.567Z,55.94
2022-07-30T12:46:22.898Z,54.22
2022-07-30T12:47:23.568Z,52.54
2022-07-30T12:48:23.307Z,53.75
2022-07-30T12:49:23.554Z,53.73
2022-07-30T12:50:24.640Z,55.41
2022-07-30T12:51:23.860Z,54.52
2022-07-30T12:52:28.518Z,54.99
2022-07-30T12:53:25.139Z,54.60
2022-07-30T12:54:24.235Z,54.52
2022-07-30T12:55:25.066Z,55.61
2022-07-30T12:56:25.068Z,55.51